createdAt,value
2022-10-05T00:00:35.236Z,11.22
2022-10-05T00:01:33.649Z,11.22
2022-10-05T00:02:33.637Z,11.15
2022-10-05T00:03:35.226Z,11.12
2022-10-05T00:04:36.280Z,11.08
2022-10-05T00:05:35.245Z,10.97
2022-10-05T00:06:33.563Z,10.94
2022-10-05T00:07:33.560Z,10.91
2022-10-05T00:08:33.585Z,10.83
2022-10-05T00:09:33.570Z,10.83
2022-10-05T00:10:33.529Z,10.86
2022-10-05T00:11:36.223Z,10.85
2022-10-05T00:12:33.511Z,10.86
2022-10-05T00:13:33.515Z,10.91
2022-10-05T00:14:33.492Z,10.94
2022-10-05T00:15:33.479Z,10.98
2022-10-05T00:16:35.125Z,10.97
2022-10-05T00:17:33.467Z,10.97
2022-10-05T00:18:33.482Z,11.00
2022-10-05T00:19:33.440Z,10.97
2022-10-05T00:20:36.076Z,10.98
2022-10-05T00:21:35.023Z,10.98
2022-10-05T00:22:33.396Z,10.98
2022-10-05T00:23:33.426Z,10.95
2022-10-05T00:24:33.380Z,10.97
2022-10-05T00:25:35.022Z,11.00
2022-10-05T00:26:33.379Z,11.01
2022-10-05T00:27:34.998Z,11.00
2022-10-05T00:28:33.435Z,11.00
2022-10-05T00:29:35.122Z,11.03
2022-10-05T00:30:35.016Z,11.00
2022-10-05T00:31:33.372Z,11.00
2022-10-05T00:32:33.295Z,10.93
2022-10-05T00:33:33.318Z,10.91
2022-10-05T00:34:34.900Z,10.86
2022-10-05T00:35:33.317Z,10.87
2022-10-05T00:36:33.279Z,10.86
2022-10-05T00:37:33.265Z,10.86
2022-10-05T00:38:33.264Z,10.87
2022-10-05T00:39:33.230Z,10.86
2022-10-05T00:40:33.248Z,10.86
2022-10-05T00:41:34.839Z,10.85
2022-10-05T00:42:33.218Z,10.85
2022-10-05T00:43:34.872Z,10.79
2022-10-05T00:44:33.176Z,10.85
2022-10-05T00:45:33.241Z,10.85
2022-10-05T00:46:33.188Z,10.87
2022-10-05T00:47:33.149Z,10.85
2022-10-05T00:48:33.137Z,10.86
2022-10-05T00:49:35.797Z,10.85
2022-10-05T00:50:33.115Z,10.83
2022-10-05T00:51:33.102Z,10.82
2022-10-05T00:52:33.116Z,10.83
2022-10-05T00:53:34.757Z,10.85
2022-10-05T00:54:33.101Z,10.79
2022-10-05T00:55:33.065Z,10.85
2022-10-05T00:56:33.053Z,10.82
2022-10-05T00:57:33.070Z,10.82
2022-10-05T00:58:33.041Z,10.85
2022-10-05T00:59:34.640Z,10.82
2022-10-05T01:00:35.701Z,10.82
2022-10-05T01:01:33.123Z,10.86
2022-10-05T01:02:36.797Z,10.86
2022-10-05T01:03:32.981Z,10.87
2022-10-05T01:04:32.976Z,10.90
2022-10-05T01:05:32.975Z,10.93
2022-10-05T01:06:32.955Z,10.93
2022-10-05T01:07:32.965Z,10.91
2022-10-05T01:08:32.930Z,10.86
2022-10-05T01:09:32.919Z,10.86
2022-10-05T01:10:32.914Z,10.85
2022-10-05T01:11:32.913Z,10.85
2022-10-05T01:12:32.891Z,10.85
2022-10-05T01:13:32.889Z,10.78
2022-10-05T01:14:32.893Z,10.78
2022-10-05T01:15:32.892Z,10.78
2022-10-05T01:16:32.899Z,10.87
2022-10-05T01:17:32.845Z,10.93
2022-10-05T01:18:32.843Z,10.97
2022-10-05T01:19:35.507Z,10.97
2022-10-05T01:20:32.830Z,11.05
2022-10-05T01:21:32.801Z,11.03
2022-10-05T01:22:32.808Z,10.97
2022-10-05T01:23:35.473Z,10.97
2022-10-05T01:24:32.767Z,10.93
2022-10-05T01:25:32.760Z,10.93
2022-10-05T01:26:32.777Z,10.91
2022-10-05T01:27:32.755Z,10.90
2022-10-05T01:28:32.763Z,10.97
2022-10-05T01:29:32.720Z,11.01
2022-10-05T01:30:32.781Z,11.08
2022-10-05T01:31:32.775Z,11.13
2022-10-05T01:32:35.353Z,11.13
2022-10-05T01:33:32.669Z,11.16
2022-10-05T01:34:32.663Z,11.11
2022-10-05T01:35:32.690Z,11.12
2022-10-05T01:36:32.653Z,11.11
2022-10-05T01:37:32.630Z,11.03
2022-10-05T01:38:32.613Z,10.98
2022-10-05T01:39:32.614Z,10.94
2022-10-05T01:40:32.616Z,10.90
2022-10-05T01:41:32.608Z,10.83
2022-10-05T01:42:32.572Z,10.83
2022-10-05T01:43:32.571Z,10.85
2022-10-05T01:44:32.571Z,10.80
2022-10-05T01:45:32.619Z,10.73
2022-10-05T01:46:34.150Z,10.72
2022-10-05T01:47:34.189Z,10.62
2022-10-05T01:48:32.527Z,10.58
2022-10-05T01:49:32.532Z,10.58
2022-10-05T01:50:32.491Z,10.58
2022-10-05T01:51:35.161Z,10.54
2022-10-05T01:52:34.116Z,10.55
2022-10-05T01:53:35.176Z,10.52
2022-10-05T01:54:32.474Z,10.57
2022-10-05T01:55:32.459Z,10.54
2022-10-05T01:56:32.437Z,10.57
2022-10-05T01:57:32.455Z,10.57
2022-10-05T01:58:32.414Z,10.54
2022-10-05T01:59:32.409Z,10.48
2022-10-05T02:00:32.393Z,10.45
2022-10-05T02:01:32.482Z,10.46
2022-10-05T02:02:32.459Z,10.43
2022-10-05T02:03:35.030Z,10.45
2022-10-05T02:05:00.569Z,10.43
2022-10-05T02:05:32.360Z,10.48
2022-10-05T02:06:32.327Z,10.42
2022-10-05T02:07:32.324Z,10.43
2022-10-05T02:08:33.964Z,10.46
2022-10-05T02:09:32.307Z,10.39
2022-10-05T02:10:32.300Z,10.34
2022-10-05T02:11:32.297Z,10.27
2022-10-05T02:12:32.288Z,10.28
2022-10-05T02:13:33.865Z,10.20
2022-10-05T02:14:32.268Z,10.20
2022-10-05T02:15:32.282Z,10.20
2022-10-05T02:16:32.238Z,10.17
2022-10-05T02:17:34.907Z,10.18
2022-10-05T02:18:32.213Z,10.21
2022-10-05T02:19:32.206Z,10.20
2022-10-05T02:20:32.220Z,10.17
2022-10-05T02:21:32.191Z,10.18
2022-10-05T02:22:33.783Z,10.17
2022-10-05T02:23:33.767Z,10.16
2022-10-05T02:24:33.801Z,10.16
2022-10-05T02:25:32.160Z,10.09
2022-10-05T02:26:32.188Z,10.10
2022-10-05T02:27:32.130Z,10.08
2022-10-05T02:28:32.185Z,10.10
2022-10-05T02:29:33.817Z,10.20
2022-10-05T02:30:32.111Z,10.14
2022-10-05T02:31:32.112Z,10.09
2022-10-05T02:32:33.774Z,10.10
2022-10-05T02:33:32.084Z,10.12
2022-10-05T02:34:33.710Z,10.12
2022-10-05T02:35:32.059Z,10.12
2022-10-05T02:36:36.821Z,10.09
2022-10-05T02:37:33.812Z,10.10
2022-10-05T02:38:32.042Z,10.21
2022-10-05T02:39:32.029Z,10.28
2022-10-05T02:40:31.990Z,10.31
2022-10-05T02:41:31.992Z,10.41
2022-10-05T02:42:31.989Z,10.39
2022-10-05T02:43:31.966Z,10.36
2022-10-05T02:44:31.962Z,10.35
2022-10-05T02:45:32.012Z,10.31
2022-10-05T02:46:31.934Z,10.30
2022-10-05T02:47:33.542Z,10.26
2022-10-05T02:48:33.538Z,10.26
2022-10-05T02:49:31.917Z,10.26
2022-10-05T02:50:31.906Z,10.38
2022-10-05T02:51:31.910Z,10.41
2022-10-05T02:52:31.878Z,10.46
2022-10-05T02:53:33.482Z,10.48
2022-10-05T02:54:31.880Z,10.55
2022-10-05T02:55:31.842Z,10.55
2022-10-05T02:56:31.844Z,10.58
2022-10-05T02:57:31.841Z,10.58
2022-10-05T02:58:31.859Z,10.65
2022-10-05T02:59:31.829Z,10.78
2022-10-05T03:00:33.440Z,10.82
2022-10-05T03:01:33.555Z,10.91
2022-10-05T03:02:31.828Z,10.91
2022-10-05T03:03:31.775Z,10.85
2022-10-05T03:04:31.788Z,10.73
2022-10-05T03:05:33.390Z,10.55
2022-10-05T03:06:31.742Z,10.42
2022-10-05T03:07:33.349Z,10.41
2022-10-05T03:08:31.714Z,10.31
2022-10-05T03:09:31.729Z,10.20
2022-10-05T03:10:31.722Z,10.12
2022-10-05T03:11:31.686Z,10.02
2022-10-05T03:12:31.705Z,9.96
2022-10-05T03:13:31.670Z,9.94
2022-10-05T03:14:31.656Z,9.94
2022-10-05T03:15:31.677Z,9.93
2022-10-05T03:16:34.319Z,9.90
2022-10-05T03:17:31.668Z,9.87
2022-10-05T03:18:31.628Z,9.87
2022-10-05T03:19:34.308Z,9.91
2022-10-05T03:20:31.598Z,9.93
2022-10-05T03:21:31.608Z,9.94
2022-10-05T03:22:31.587Z,9.94
2022-10-05T03:23:31.622Z,10.08
2022-10-05T03:24:31.555Z,10.14
2022-10-05T03:25:31.593Z,10.20
2022-10-05T03:26:31.545Z,10.26
2022-10-05T03:27:36.308Z,10.35
2022-10-05T03:28:31.640Z,10.34
2022-10-05T03:29:31.543Z,10.27
2022-10-05T03:30:31.542Z,10.20
2022-10-05T03:31:31.581Z,10.27
2022-10-05T03:32:31.506Z,10.27
2022-10-05T03:33:31.509Z,10.27
2022-10-05T03:34:31.467Z,10.24
2022-10-05T03:35:31.451Z,10.24
2022-10-05T03:36:31.447Z,10.24
2022-10-05T03:37:31.462Z,10.23
2022-10-05T03:38:31.418Z,10.20
2022-10-05T03:39:33.042Z,10.18
2022-10-05T03:40:31.422Z,10.21
2022-10-05T03:41:31.406Z,10.18
2022-10-05T03:42:31.409Z,10.18
2022-10-05T03:43:31.419Z,10.21
2022-10-05T03:44:31.387Z,10.16
2022-10-05T03:45:32.966Z,10.16
2022-10-05T03:46:31.401Z,10.17
2022-10-05T03:47:31.335Z,10.10
2022-10-05T03:48:34.002Z,10.09
2022-10-05T03:49:31.343Z,10.10
2022-10-05T03:50:32.935Z,10.10
2022-10-05T03:51:31.304Z,10.12
2022-10-05T03:52:31.298Z,10.14
2022-10-05T03:53:32.840Z,10.14
2022-10-05T03:54:31.288Z,10.17
2022-10-05T03:55:32.868Z,10.26
2022-10-05T03:56:31.251Z,10.27
2022-10-05T03:57:31.246Z,10.20
2022-10-05T03:58:31.288Z,10.14
2022-10-05T03:59:32.860Z,10.14
2022-10-05T04:00:31.222Z,10.08
2022-10-05T04:01:31.273Z,10.10
2022-10-05T04:02:31.260Z,10.09
2022-10-05T04:03:31.190Z,10.05
2022-10-05T04:04:31.190Z,10.05
2022-10-05T04:05:31.158Z,10.06
2022-10-05T04:06:32.953Z,10.10
2022-10-05T04:07:31.134Z,10.09
2022-10-05T04:08:32.238Z,10.08
2022-10-05T04:09:33.826Z,10.08
2022-10-05T04:10:32.756Z,10.05
2022-10-05T04:11:31.055Z,10.05
2022-10-05T04:12:32.745Z,9.99
2022-10-05T04:13:31.099Z,10.03
2022-10-05T04:14:31.066Z,10.01
2022-10-05T04:15:31.161Z,9.94
2022-10-05T04:16:31.046Z,9.88
2022-10-05T04:17:31.076Z,9.81
2022-10-05T04:18:31.056Z,9.83
2022-10-05T04:19:31.029Z,9.94
2022-10-05T04:20:31.012Z,10.06
2022-10-05T04:21:30.994Z,10.03
2022-10-05T04:22:31.011Z,9.93
2022-10-05T04:23:30.990Z,10.01
2022-10-05T04:24:33.655Z,10.02
2022-10-05T04:25:32.555Z,10.08
2022-10-05T04:26:30.950Z,10.05
2022-10-05T04:27:30.942Z,9.94
2022-10-05T04:28:32.320Z,9.90
2022-10-05T04:29:30.920Z,9.83
2022-10-05T04:30:30.866Z,9.81
2022-10-05T04:31:30.962Z,9.77
2022-10-05T04:32:30.857Z,9.69
2022-10-05T04:33:30.872Z,9.69
2022-10-05T04:34:30.896Z,9.85
2022-10-05T04:35:32.489Z,9.91
2022-10-05T04:36:30.865Z,9.96
2022-10-05T04:37:30.866Z,9.96
2022-10-05T04:38:30.818Z,9.99
2022-10-05T04:39:35.472Z,10.02
2022-10-05T04:40:30.809Z,10.09
2022-10-05T04:41:30.826Z,10.08
2022-10-05T04:42:30.805Z,10.03
2022-10-05T04:43:30.834Z,10.05
2022-10-05T04:44:30.787Z,10.08
2022-10-05T04:45:30.727Z,10.16
2022-10-05T04:46:30.798Z,10.17
2022-10-05T04:47:30.748Z,10.23
2022-10-05T04:48:30.680Z,10.20
2022-10-05T04:49:30.724Z,10.20
2022-10-05T04:50:30.666Z,10.20
2022-10-05T04:51:30.739Z,10.28
2022-10-05T04:52:30.824Z,10.26
2022-10-05T04:53:30.658Z,10.23
2022-10-05T04:54:30.677Z,10.26
2022-10-05T04:55:30.683Z,10.28
2022-10-05T04:56:30.618Z,10.30
2022-10-05T04:57:30.637Z,10.38
2022-10-05T04:58:33.372Z,10.39
2022-10-05T04:59:30.621Z,10.41
2022-10-05T05:00:35.451Z,10.39
2022-10-05T05:01:30.638Z,10.38
2022-10-05T05:02:30.598Z,10.41
2022-10-05T05:03:30.578Z,10.42
2022-10-05T05:04:32.266Z,10.42
2022-10-05T05:05:35.345Z,10.48
2022-10-05T05:06:30.690Z,10.55
2022-10-05T05:07:30.567Z,10.58
2022-10-05T05:08:30.565Z,10.60
2022-10-05T05:09:30.522Z,10.65
2022-10-05T05:10:30.469Z,10.64
2022-10-05T05:11:30.451Z,10.62
2022-10-05T05:12:30.434Z,10.70
2022-10-05T05:13:30.509Z,10.75
2022-10-05T05:14:30.472Z,10.75
2022-10-05T05:15:30.458Z,10.79
2022-10-05T05:16:30.536Z,10.76
2022-10-05T05:17:30.395Z,10.82
2022-10-05T05:18:32.007Z,10.82
2022-10-05T05:19:30.433Z,10.86
2022-10-05T05:20:30.412Z,10.86
2022-10-05T05:21:30.403Z,10.87
2022-10-05T05:22:30.355Z,10.87
2022-10-05T05:23:30.356Z,10.90
2022-10-05T05:24:30.398Z,10.93
2022-10-05T05:25:30.307Z,10.94
2022-10-05T05:26:30.301Z,10.94
2022-10-05T05:27:33.069Z,11.00
2022-10-05T05:28:30.377Z,10.95
2022-10-05T05:29:30.287Z,10.97
2022-10-05T05:30:31.877Z,10.87
2022-10-05T05:31:30.309Z,10.86
2022-10-05T05:32:30.235Z,10.85
2022-10-05T05:33:30.254Z,10.91
2022-10-05T05:34:30.294Z,10.97
2022-10-05T05:35:30.208Z,11.11
2022-10-05T05:36:30.222Z,11.20
2022-10-05T05:37:30.177Z,11.30
2022-10-05T05:38:30.174Z,11.33
2022-10-05T05:39:34.950Z,11.31
2022-10-05T05:40:34.921Z,11.37
2022-10-05T05:41:31.745Z,11.40
2022-10-05T05:42:30.173Z,11.38
2022-10-05T05:43:31.716Z,11.43
2022-10-05T05:44:30.117Z,11.40
2022-10-05T05:45:30.128Z,11.38
2022-10-05T05:46:58.453Z,11.36
2022-10-05T05:47:30.146Z,11.31
2022-10-05T05:48:30.072Z,11.36
2022-10-05T05:49:30.080Z,11.34
2022-10-05T05:50:32.787Z,11.38
2022-10-05T05:51:32.726Z,11.38
2022-10-05T05:52:32.796Z,11.45
2022-10-05T05:53:30.015Z,11.46
2022-10-05T05:54:30.010Z,11.46
2022-10-05T05:55:30.644Z,11.48
2022-10-05T05:56:29.999Z,11.52
2022-10-05T05:57:29.999Z,11.54
2022-10-05T05:58:34.751Z,11.55
2022-10-05T05:59:29.961Z,11.70
2022-10-05T06:00:29.958Z,11.82
2022-10-05T06:01:33.723Z,11.95
2022-10-05T06:02:30.033Z,12.04
2022-10-05T06:03:29.937Z,12.13
2022-10-05T06:04:29.921Z,12.17
2022-10-05T06:05:29.910Z,12.14
2022-10-05T06:06:29.944Z,12.07
2022-10-05T06:07:30.861Z,12.00
2022-10-05T06:08:29.866Z,11.95
2022-10-05T06:09:31.488Z,12.07
2022-10-05T06:10:31.468Z,12.11
2022-10-05T06:11:29.858Z,12.15
2022-10-05T06:12:29.842Z,12.17
2022-10-05T06:13:29.839Z,12.23
2022-10-05T06:14:31.570Z,12.21
2022-10-05T06:15:29.782Z,12.25
2022-10-05T06:16:31.429Z,12.26
2022-10-05T06:17:29.846Z,12.30
2022-10-05T06:18:29.783Z,12.43
2022-10-05T06:19:31.372Z,12.46
2022-10-05T06:20:29.781Z,12.48
2022-10-05T06:21:29.738Z,12.46
2022-10-05T06:22:31.443Z,12.43
2022-10-05T06:23:29.751Z,12.38
2022-10-05T06:24:32.381Z,12.41
2022-10-05T06:25:29.720Z,12.44
2022-10-05T06:26:29.702Z,12.41
2022-10-05T06:27:29.667Z,12.41
2022-10-05T06:28:29.732Z,12.33
2022-10-05T06:29:32.339Z,12.30
2022-10-05T06:30:29.654Z,12.28
2022-10-05T06:31:29.753Z,12.32
2022-10-05T06:32:29.653Z,12.32
2022-10-05T06:33:29.610Z,12.29
2022-10-05T06:34:29.600Z,12.25
2022-10-05T06:35:29.603Z,12.23
2022-10-05T06:36:29.618Z,12.22
2022-10-05T06:37:29.632Z,12.17
2022-10-05T06:38:31.251Z,12.11
2022-10-05T06:39:32.250Z,12.08
2022-10-05T06:40:31.179Z,12.05
2022-10-05T06:41:29.529Z,11.99
2022-10-05T06:42:29.531Z,12.00
2022-10-05T06:43:29.541Z,12.03
2022-10-05T06:44:29.500Z,12.05
2022-10-05T06:45:31.178Z,12.07
2022-10-05T06:46:29.477Z,12.03
2022-10-05T06:47:29.488Z,12.13
2022-10-05T06:48:29.490Z,12.25
2022-10-05T06:49:33.107Z,12.29
2022-10-05T06:50:29.449Z,12.32
2022-10-05T06:51:29.470Z,12.30
2022-10-05T06:52:29.589Z,12.32
2022-10-05T06:53:29.476Z,12.29
2022-10-05T06:54:31.313Z,12.21
2022-10-05T06:55:29.384Z,12.21
2022-10-05T06:56:31.316Z,12.11
2022-10-05T06:57:29.438Z,12.05
2022-10-05T06:58:29.373Z,12.00
2022-10-05T06:59:29.389Z,11.99
2022-10-05T07:00:29.368Z,11.95
2022-10-05T07:01:29.431Z,11.96
2022-10-05T07:02:29.331Z,11.88
2022-10-05T07:03:29.319Z,11.85
2022-10-05T07:04:33.336Z,11.84
2022-10-05T07:05:29.313Z,11.79
2022-10-05T07:06:29.301Z,11.76
2022-10-05T07:07:29.307Z,11.77
2022-10-05T07:08:29.251Z,11.71
2022-10-05T07:09:29.245Z,11.76
2022-10-05T07:10:29.249Z,11.79
2022-10-05T07:11:29.225Z,11.79
2022-10-05T07:12:29.246Z,11.82
2022-10-05T07:13:29.201Z,11.77
2022-10-05T07:14:29.203Z,11.76
2022-10-05T07:15:29.179Z,11.73
2022-10-05T07:16:29.260Z,11.70
2022-10-05T07:17:29.173Z,11.73
2022-10-05T07:18:29.173Z,11.71
2022-10-05T07:19:29.158Z,11.67
2022-10-05T07:20:29.176Z,11.71
2022-10-05T07:21:29.117Z,11.71
2022-10-05T07:22:33.429Z,11.70
2022-10-05T07:23:29.099Z,11.74
2022-10-05T07:24:29.110Z,11.73
2022-10-05T07:25:29.106Z,11.76
2022-10-05T07:26:29.294Z,11.76
2022-10-05T07:27:29.068Z,11.79
2022-10-05T07:28:29.141Z,11.84
2022-10-05T07:29:30.658Z,11.84
2022-10-05T07:30:29.127Z,11.91
2022-10-05T07:31:29.017Z,11.91
2022-10-05T07:32:29.109Z,11.97
2022-10-05T07:33:29.111Z,12.11
2022-10-05T07:34:29.334Z,12.23
2022-10-05T07:35:30.603Z,12.36
2022-10-05T07:36:31.674Z,12.47
2022-10-05T07:37:28.962Z,12.63
2022-10-05T07:38:30.708Z,12.69
2022-10-05T07:39:55.480Z,12.77
2022-10-05T07:40:30.571Z,12.76
2022-10-05T07:41:28.928Z,12.69
2022-10-05T07:42:28.919Z,12.65
2022-10-05T07:43:40.150Z,12.62
2022-10-05T07:44:28.902Z,12.59
2022-10-05T07:45:30.576Z,12.54
2022-10-05T07:46:28.889Z,12.53
2022-10-05T07:47:31.610Z,12.54
2022-10-05T07:48:28.848Z,12.55
2022-10-05T07:49:28.835Z,12.55
2022-10-05T07:50:28.852Z,12.55
2022-10-05T07:51:30.476Z,12.59
2022-10-05T07:52:32.404Z,12.55
2022-10-05T07:53:28.803Z,12.59
2022-10-05T07:54:28.793Z,12.62
2022-10-05T07:55:28.783Z,12.61
2022-10-05T07:56:31.445Z,12.63
2022-10-05T07:57:28.778Z,12.65
2022-10-05T07:58:28.759Z,12.69
2022-10-05T07:59:28.744Z,12.77
2022-10-05T08:00:30.350Z,12.83
2022-10-05T08:01:28.779Z,12.86
2022-10-05T08:02:28.879Z,12.91
2022-10-05T08:03:28.714Z,12.93
2022-10-05T08:04:28.685Z,12.99
2022-10-05T08:05:31.388Z,13.01
2022-10-05T08:06:28.703Z,13.04
2022-10-05T08:07:28.665Z,13.05
2022-10-05T08:08:28.684Z,13.08
2022-10-05T08:09:28.728Z,13.11
2022-10-05T08:10:28.635Z,13.16
2022-10-05T08:11:28.638Z,13.21
2022-10-05T08:12:28.654Z,13.26
2022-10-05T08:13:28.597Z,13.35
2022-10-05T08:14:30.385Z,13.36
2022-10-05T08:15:28.588Z,13.42
2022-10-05T08:16:28.653Z,13.42
2022-10-05T08:17:28.596Z,13.42
2022-10-05T08:18:28.564Z,13.39
2022-10-05T08:19:28.555Z,13.38
2022-10-05T08:20:28.551Z,13.26
2022-10-05T08:21:28.516Z,13.21
2022-10-05T08:22:28.499Z,13.19
2022-10-05T08:23:28.525Z,13.13
2022-10-05T08:24:28.508Z,13.13
2022-10-05T08:25:28.479Z,13.04
2022-10-05T08:26:28.466Z,13.05
2022-10-05T08:27:28.502Z,13.05
2022-10-05T08:28:28.536Z,13.09
2022-10-05T08:29:28.451Z,13.16
2022-10-05T08:30:28.435Z,13.23
2022-10-05T08:31:28.472Z,13.27
2022-10-05T08:32:28.837Z,13.23
2022-10-05T08:33:28.400Z,13.24
2022-10-05T08:34:28.412Z,13.24
2022-10-05T08:35:28.384Z,13.27
2022-10-05T08:36:28.390Z,13.27
2022-10-05T08:37:28.415Z,13.32
2022-10-05T08:38:28.344Z,13.29
2022-10-05T08:39:28.360Z,13.29
2022-10-05T08:40:28.393Z,13.23
2022-10-05T08:41:28.321Z,13.20
2022-10-05T08:42:28.313Z,13.24
2022-10-05T08:43:32.942Z,13.23
2022-10-05T08:44:28.301Z,13.27
2022-10-05T08:45:28.376Z,13.27
2022-10-05T08:46:28.363Z,13.36
2022-10-05T08:47:28.258Z,13.39
2022-10-05T08:48:28.314Z,13.40
2022-10-05T08:49:31.589Z,13.45
2022-10-05T08:50:28.243Z,13.49
2022-10-05T08:51:28.249Z,13.43
2022-10-05T08:52:28.224Z,13.40
2022-10-05T08:53:28.236Z,13.42
2022-10-05T08:54:28.196Z,13.43
2022-10-05T08:55:28.181Z,13.43
2022-10-05T08:56:29.046Z,13.46
2022-10-05T08:57:28.158Z,13.47
2022-10-05T08:58:28.193Z,13.49
2022-10-05T08:59:28.182Z,13.51
2022-10-05T09:00:28.139Z,13.53
2022-10-05T09:01:28.218Z,13.53
2022-10-05T09:02:28.163Z,13.58
2022-10-05T09:03:34.213Z,13.68
2022-10-05T09:04:28.094Z,13.65
2022-10-05T09:05:28.094Z,13.57
2022-10-05T09:06:28.184Z,13.43
2022-10-05T09:07:28.062Z,13.36
2022-10-05T09:08:29.841Z,13.43
2022-10-05T09:09:29.811Z,13.53
2022-10-05T09:10:28.043Z,13.64
2022-10-05T09:11:28.097Z,13.82
2022-10-05T09:12:28.175Z,13.96
2022-10-05T09:13:28.022Z,14.08
2022-10-05T09:14:28.089Z,14.09
2022-10-05T09:15:27.994Z,14.12
2022-10-05T09:16:28.033Z,14.11
2022-10-05T09:17:27.992Z,14.09
2022-10-05T09:18:27.966Z,14.08
2022-10-05T09:19:28.012Z,14.01
2022-10-05T09:20:27.929Z,13.97
2022-10-05T09:21:27.928Z,13.94
2022-10-05T09:22:27.908Z,13.96
2022-10-05T09:23:27.902Z,13.94
2022-10-05T09:24:27.961Z,13.93
2022-10-05T09:25:27.884Z,13.93
2022-10-05T09:26:27.865Z,13.90
2022-10-05T09:27:30.534Z,13.91
2022-10-05T09:28:27.898Z,13.94
2022-10-05T09:29:27.869Z,14.00
2022-10-05T09:30:29.562Z,14.15
2022-10-05T09:31:27.883Z,14.30
2022-10-05T09:32:29.542Z,14.41
2022-10-05T09:33:27.822Z,14.55
2022-10-05T09:34:29.412Z,14.63
2022-10-05T09:35:29.428Z,14.63
2022-10-05T09:36:27.790Z,14.69
2022-10-05T09:37:27.778Z,14.71
2022-10-05T09:38:27.772Z,14.67
2022-10-05T09:39:27.791Z,14.66
2022-10-05T09:40:27.714Z,14.70
2022-10-05T09:41:27.714Z,14.77
2022-10-05T09:42:27.702Z,14.73
2022-10-05T09:43:27.711Z,14.78
2022-10-05T09:44:27.724Z,14.79
2022-10-05T09:45:27.668Z,14.86
2022-10-05T09:46:27.748Z,14.87
2022-10-05T09:47:27.655Z,14.87
2022-10-05T09:48:27.696Z,14.87
2022-10-05T09:49:27.672Z,14.86
2022-10-05T09:50:27.631Z,14.85
2022-10-05T09:51:27.608Z,14.85
2022-10-05T09:52:27.591Z,14.83
2022-10-05T09:53:27.614Z,14.85
2022-10-05T09:54:27.608Z,14.86
2022-10-05T09:55:27.567Z,14.82
2022-10-05T09:56:29.236Z,14.83
2022-10-05T09:57:27.571Z,14.86
2022-10-05T09:58:27.571Z,14.83
2022-10-05T09:59:27.532Z,14.83
2022-10-05T10:00:27.518Z,14.85
2022-10-05T10:01:34.925Z,14.89
2022-10-05T10:02:27.821Z,15.01
2022-10-05T10:03:27.758Z,14.96
2022-10-05T10:04:27.535Z,14.83
2022-10-05T10:05:29.390Z,14.70
2022-10-05T10:06:27.463Z,14.59
2022-10-05T10:07:27.459Z,14.55
2022-10-05T10:08:31.272Z,14.55
2022-10-05T10:09:29.277Z,14.63
2022-10-05T10:10:27.420Z,14.70
2022-10-05T10:11:27.456Z,14.83
2022-10-05T10:12:27.405Z,15.04
2022-10-05T10:13:27.390Z,15.12
2022-10-05T10:14:27.416Z,15.15
2022-10-05T10:15:27.400Z,15.15
2022-10-05T10:16:29.174Z,15.12
2022-10-05T10:17:27.348Z,15.14
2022-10-05T10:18:28.968Z,15.26
2022-10-05T10:19:27.341Z,15.23
2022-10-05T10:20:27.352Z,15.30
2022-10-05T10:21:27.347Z,15.35
2022-10-05T10:22:27.321Z,15.45
2022-10-05T10:23:28.906Z,15.45
2022-10-05T10:24:27.284Z,15.47
2022-10-05T10:25:27.344Z,15.47
2022-10-05T10:26:28.911Z,15.59
2022-10-05T10:27:27.261Z,15.56
2022-10-05T10:28:27.286Z,15.52
2022-10-05T10:30:27.776Z,15.52
2022-10-05T10:31:27.278Z,15.59
2022-10-05T10:32:27.201Z,15.59
2022-10-05T10:33:27.207Z,15.59
2022-10-05T10:34:27.177Z,15.54
2022-10-05T10:35:27.306Z,15.59
2022-10-05T10:36:27.160Z,15.56
2022-10-05T10:37:28.786Z,15.48
2022-10-05T10:38:27.193Z,15.51
2022-10-05T10:39:27.129Z,15.60
2022-10-05T10:40:27.164Z,15.59
2022-10-05T10:41:27.132Z,15.65
2022-10-05T10:42:27.151Z,15.72
2022-10-05T10:43:27.125Z,15.69
2022-10-05T10:44:27.088Z,15.72
2022-10-05T10:45:27.096Z,15.73
2022-10-05T10:46:27.134Z,15.76
2022-10-05T10:47:29.743Z,15.78
2022-10-05T10:48:27.065Z,15.84
2022-10-05T10:49:27.028Z,15.87
2022-10-05T10:50:27.041Z,15.95
2022-10-05T10:51:27.201Z,16.06
2022-10-05T10:52:27.107Z,16.22
2022-10-05T10:53:27.039Z,16.39
2022-10-05T10:54:26.978Z,16.49
2022-10-05T10:55:26.984Z,16.62
2022-10-05T10:56:26.960Z,16.80
2022-10-05T10:57:26.975Z,16.88
2022-10-05T10:59:30.863Z,17.10
2022-10-05T11:00:26.932Z,17.14
2022-10-05T11:01:27.007Z,17.24
2022-10-05T11:02:26.987Z,17.25
2022-10-05T11:03:26.879Z,17.31
2022-10-05T11:04:26.928Z,17.39
2022-10-05T11:05:31.658Z,17.41
2022-10-05T11:06:26.860Z,17.37
2022-10-05T11:07:26.958Z,17.39
2022-10-05T11:08:26.835Z,17.35
2022-10-05T11:09:26.826Z,17.35
2022-10-05T11:10:28.499Z,17.24
2022-10-05T11:11:26.803Z,17.17
2022-10-05T11:12:29.833Z,17.17
2022-10-05T11:13:26.815Z,17.14
2022-10-05T11:14:26.774Z,17.14
2022-10-05T11:15:26.787Z,17.14
2022-10-05T11:16:26.771Z,17.17
2022-10-05T11:17:26.771Z,17.28
2022-10-05T11:18:26.746Z,17.28
2022-10-05T11:19:35.173Z,17.34
2022-10-05T11:20:26.737Z,17.38
2022-10-05T11:21:26.958Z,17.41
2022-10-05T11:22:26.745Z,17.39
2022-10-05T11:23:26.737Z,17.41
2022-10-05T11:24:26.669Z,17.39
2022-10-05T11:25:26.712Z,17.39
2022-10-05T11:26:26.647Z,17.49
2022-10-05T11:27:28.374Z,17.56
2022-10-05T11:28:26.720Z,17.57
2022-10-05T11:29:26.668Z,17.63
2022-10-05T11:30:26.630Z,17.76
2022-10-05T11:31:28.378Z,17.78
2022-10-05T11:32:26.608Z,17.83
2022-10-05T11:33:26.618Z,17.84
2022-10-05T11:34:29.343Z,17.91
2022-10-05T11:35:26.569Z,18.01
2022-10-05T11:36:28.163Z,18.01
2022-10-05T11:37:26.590Z,18.02
2022-10-05T11:38:28.147Z,18.03
2022-10-05T11:39:26.553Z,18.01
2022-10-05T11:40:26.534Z,18.03
2022-10-05T11:41:28.343Z,17.97
2022-10-05T11:42:26.529Z,17.97
2022-10-05T11:43:28.146Z,17.94
2022-10-05T11:44:26.563Z,17.91
2022-10-05T11:45:26.502Z,17.87
2022-10-05T11:46:28.164Z,17.78
2022-10-05T11:47:26.451Z,17.81
2022-10-05T11:48:26.453Z,17.75
2022-10-05T11:49:26.450Z,17.78
2022-10-05T11:50:29.111Z,17.86
2022-10-05T11:51:28.990Z,18.02
2022-10-05T11:52:26.406Z,18.02
2022-10-05T11:53:26.390Z,18.20
2022-10-05T11:54:26.387Z,18.23
2022-10-05T11:55:26.383Z,18.36
2022-10-05T11:56:26.430Z,18.43
2022-10-05T11:57:26.489Z,18.39
2022-10-05T11:58:27.949Z,18.38
2022-10-05T11:59:26.422Z,18.42
2022-10-05T12:00:26.312Z,18.42
2022-10-05T12:01:26.333Z,18.49
2022-10-05T12:02:26.419Z,18.52
2022-10-05T12:03:28.044Z,18.58
2022-10-05T12:04:27.880Z,18.64
2022-10-05T12:05:26.289Z,18.76
2022-10-05T12:06:27.848Z,18.83
2022-10-05T12:07:26.246Z,18.98
2022-10-05T12:08:26.232Z,18.97
2022-10-05T12:09:28.917Z,19.00
2022-10-05T12:10:26.266Z,18.97
2022-10-05T12:11:27.886Z,18.98
2022-10-05T12:12:27.823Z,18.97
2022-10-05T12:13:26.184Z,18.93
2022-10-05T12:14:26.173Z,18.79
2022-10-05T12:15:26.163Z,18.81
2022-10-05T12:16:26.347Z,18.82
2022-10-05T12:17:26.151Z,18.85
2022-10-05T12:18:26.136Z,18.91
2022-10-05T12:19:26.133Z,18.89
2022-10-05T12:20:27.777Z,18.89
2022-10-05T12:21:26.167Z,18.91
2022-10-05T12:22:26.732Z,19.04
2022-10-05T12:23:26.113Z,18.93
2022-10-05T12:24:27.792Z,18.93
2022-10-05T12:25:26.073Z,18.94
2022-10-05T12:26:26.108Z,18.91
2022-10-05T12:27:26.079Z,18.89
2022-10-05T12:28:26.103Z,18.78
2022-10-05T12:29:28.820Z,18.71
2022-10-05T12:30:28.757Z,18.67
2022-10-05T12:31:26.050Z,18.75
2022-10-05T12:32:26.016Z,18.83
2022-10-05T12:33:26.008Z,18.79
2022-10-05T12:34:26.039Z,18.81
2022-10-05T12:35:43.851Z,18.83
2022-10-05T12:36:31.926Z,18.93
2022-10-05T12:37:25.933Z,18.96
2022-10-05T12:38:25.927Z,18.94
2022-10-05T12:39:25.939Z,18.85
2022-10-05T12:40:25.926Z,18.85
2022-10-05T12:41:25.912Z,18.86
2022-10-05T12:42:28.644Z,18.82
2022-10-05T12:43:25.898Z,18.76
2022-10-05T12:44:25.898Z,18.66
2022-10-05T12:45:25.877Z,18.61
2022-10-05T12:46:26.562Z,18.57
2022-10-05T12:47:27.436Z,18.64
2022-10-05T12:48:25.823Z,18.64
2022-10-05T12:49:25.866Z,18.68
2022-10-05T12:50:28.514Z,18.79
2022-10-05T12:51:25.814Z,18.78
2022-10-05T12:52:25.813Z,18.79
2022-10-05T12:53:25.802Z,18.76
2022-10-05T12:54:25.802Z,18.79
2022-10-05T12:55:25.752Z,18.86